Maersk Erin — OUWG2 — position and weather

sailwx.info

Track history (hours):
 
Tides and Currents Weather Stations Pressure Air Temp Water Temp Dewpoint Dewpoint Depression Visibility Wind Speed Wind Dir Waves Ship Positions

Maersk Erin

Last reported at 2018-Aug-06 20:24 UTC. Time now 2018-Aug-14 19:27 UTC.
Position N 27°56' W 018°50'.

Length 186 m; draft 8.9 m.

Type: Ship. MMSI: 219410000.

Date/timePositionNaut miles runAvg speedWind from/ knotsBaromVisibWave heightAir tempDewpointWater temp
2018-Aug-06 20:24N 27°56' W 018°50'1112.5
2018-Aug-06 19:30N 28°07' W 018°48'612.7
2018-Aug-06 19:01N 28°14' W 018°47'612.5
2018-Aug-06 18:30N 28°20' W 018°45'612.1
2018-Aug-06 18:00N 28°26' W 018°44'611.9
2018-Aug-06 17:31N 28°31' W 018°42'611.5
2018-Aug-06 17:00N 28°37' W 018°41'611.3
2018-Aug-06 16:30N 28°43' W 018°39'711.5
2018-Aug-06 15:52N 28°50' W 018°37'511.9
2018-Aug-06 15:29N 28°54' W 018°36'612.1
2018-Aug-06 15:01N 28°60' W 018°35'612.5
2018-Aug-06 14:30N 29°06' W 018°33'612.6
2018-Aug-06 14:01N 29°12' W 018°32'1512.7
2018-Aug-06 12:49N 29°27' W 018°28'412.7
2018-Aug-06 12:30N 29°31' W 018°27'712.7
2018-Aug-06 11:56N 29°38' W 018°25'612.6
2018-Aug-06 11:29N 29°43' W 018°24'612.7
2018-Aug-06 11:00N 29°49' W 018°23'2512.5
2018-Aug-06 09:00N 30°14' W 018°16'612.8
2018-Aug-06 08:30N 30°20' W 018°15'612.6
2018-Aug-06 08:00N 30°26' W 018°13'612.5
2018-Aug-06 07:30N 30°32' W 018°12'712.4
2018-Aug-06 06:59N 30°39' W 018°10'612.5
2018-Aug-06 06:30N 30°44' W 018°08'612.5
2018-Aug-06 06:00N 30°51' W 018°07'612.2
2018-Aug-06 05:30N 30°57' W 018°06'612.3
2018-Aug-06 05:01N 31°02' W 018°04'812.3
2018-Aug-06 04:20N 31°11' W 018°02'3212.3
2018-Aug-06 01:43N 31°42' W 017°54'412.6
2018-Aug-06 01:22N 31°46' W 017°53'1412.6
2018-Aug-06 00:14N 32°00' W 017°50'512.6
2018-Aug-05 23:51N 32°05' W 017°48'412.6
2018-Aug-05 23:30N 32°09' W 017°47'712.7
2018-Aug-05 22:58N 32°16' W 017°46'713.0
2018-Aug-05 22:28N 32°22' W 017°44'613.1
2018-Aug-05 22:00N 32°28' W 017°43'612.9
2018-Aug-05 21:31N 32°35' W 017°41'612.7
2018-Aug-05 21:00N 32°41' W 017°39'612.9
2018-Aug-05 20:30N 32°47' W 017°38'712.9
2018-Aug-05 19:59N 32°54' W 017°36'612.5
2018-Aug-05 19:30N 32°59' W 017°33'612.4
2018-Aug-05 19:00N 33°05' W 017°30'612.5
2018-Aug-05 18:30N 33°10' W 017°27'612.4
2018-Aug-05 18:00N 33°16' W 017°23'812.5
2018-Aug-05 17:23N 33°23' W 017°19'512.4
2018-Aug-05 16:59N 33°27' W 017°17'612.3
2018-Aug-05 16:31N 33°33' W 017°14'712.6
2018-Aug-05 15:59N 33°39' W 017°11'911.9
2018-Aug-05 15:14N 33°47' W 017°06'0 1.9
2018-Aug-05 15:00N 33°47' W 017°06'612.6
2018-Aug-05 14:30N 33°53' W 017°03'1412.7
2018-Aug-05 13:24N 34°05' W 016°56'512.5
2018-Aug-05 13:00N 34°10' W 016°53'612.6
2018-Aug-05 12:30N 34°16' W 016°50'1012.8
2018-Aug-05 11:43N 34°25' W 016°45'6312.3
2018-Aug-05 06:36N 35°22' W 016°12'612.1
2018-Aug-05 06:06N 35°27' W 016°09'9012.3
2018-Aug-04 22:46N 36°48' W 015°20'312.2
2018-Aug-04 22:30N 36°51' W 015°18'712.4
2018-Aug-04 21:54N 36°58' W 015°14'812.8
2018-Aug-04 21:19N 37°05' W 015°10'1812.6
2018-Aug-04 19:52N 37°21' W 015°00'812.9
2018-Aug-04 19:16N 37°28' W 014°56'8012.4
2018-Aug-04 12:49N 38°40' W 014°11'512.4
2018-Aug-04 12:26N 38°44' W 014°08'512.3
2018-Aug-04 12:01N 38°49' W 014°05'612.3
2018-Aug-04 11:31N 38°54' W 014°01'612.2
2018-Aug-04 11:01N 38°60' W 013°58'612.6
2018-Aug-04 10:30N 39°05' W 013°54'812.6
2018-Aug-04 09:53N 39°12' W 013°50'512.5
2018-Aug-04 09:30N 39°17' W 013°47'912.6
2018-Aug-04 08:47N 39°25' W 013°41'412.6
2018-Aug-04 08:30N 39°28' W 013°39'612.4
2018-Aug-04 08:01N 39°33' W 013°36'612.4
2018-Aug-04 07:30N 39°39' W 013°32'612.8
2018-Aug-04 07:00N 39°44' W 013°28'612.4
2018-Aug-04 06:30N 39°50' W 013°25'612.3
2018-Aug-04 06:01N 39°56' W 013°21'712.0
2018-Aug-04 05:26N 40°02' W 013°17'612.2
2018-Aug-04 04:59N 40°07' W 013°14'612.4
2018-Aug-04 04:31N 40°12' W 013°10'611.1
2018-Aug-04 04:00N 40°17' W 013°07'611.0
2018-Aug-04 03:30N 40°22' W 013°04'611.3
2018-Aug-04 03:00N 40°27' W 013°00'4211.0
2018-Aug-03 23:14N 41°04' W 012°35'611.3
2018-Aug-03 22:43N 41°09' W 012°31'211.9
2018-Aug-03 22:30N 41°11' W 012°30'612.2
2018-Aug-03 22:00N 41°17' W 012°26'612.2
2018-Aug-03 21:30N 41°22' W 012°22'32112.6
2018-Aug-02 19:59N 46°02' W 008°46'4912.1
2018-Aug-02 15:58N 46°44' W 008°11'2012.2
2018-Aug-02 14:19N 47°02' W 007°56'1612.1
2018-Aug-02 12:59N 47°15' W 007°43'2412.1
2018-Aug-02 11:01N 47°36' W 007°25'012.5
2018-Aug-02 10:59N 47°36' W 007°25'712.4
2018-Aug-02 10:26N 47°42' W 007°20'1112.8
2018-Aug-02 09:37N 47°51' W 007°11'313.3
2018-Aug-02 09:24N 47°53' W 007°08'512.8
2018-Aug-02 09:00N 47°58' W 007°05'712.4
2018-Aug-02 08:24N 48°04' W 006°59'512.2
2018-Aug-02 08:00N 48°08' W 006°56'711.9
2018-Aug-02 07:23N 48°14' W 006°49'411.1
2018-Aug-02 07:00N 48°18' W 006°46'710.5
2018-Aug-02 06:22N 48°23' W 006°40'410.0
2018-Aug-02 06:01N 48°26' W 006°38'5 9.9
2018-Aug-02 05:30N 48°31' W 006°34'510.1
2018-Aug-02 05:00N 48°35' W 006°30'510.1
2018-Aug-02 04:30N 48°39' W 006°26'510.1
2018-Aug-02 03:59N 48°44' W 006°22'510.4
2018-Aug-02 03:30N 48°48' W 006°18'510.5
2018-Aug-02 03:01N 48°53' W 006°14'510.7
2018-Aug-02 02:30N 48°57' W 006°10'510.6
2018-Aug-02 02:00N 49°02' W 006°05'510.8
2018-Aug-02 01:31N 49°05' W 005°59'611.1
2018-Aug-02 01:00N 49°08' W 005°52'611.2
2018-Aug-02 00:30N 49°12' W 005°45'610.9
2018-Aug-01 23:59N 49°14' W 005°38'711.1
2018-Aug-01 23:21N 49°18' W 005°29'411.0
2018-Aug-01 23:01N 49°20' W 005°24'910.9
2018-Aug-01 22:13N 49°25' W 005°13'210.3
2018-Aug-01 22:00N 49°26' W 005°10'610.5
2018-Aug-01 21:26N 49°30' W 005°03'2010.2
2018-Aug-01 19:31N 49°37' W 004°35'010.0
2018-Aug-01 19:30N 49°37' W 004°35'3110.8
2018-Aug-01 16:38N 49°48' W 003°50'1612.8
2018-Aug-01 15:24N 49°53' W 003°26'512.9
2018-Aug-01 15:00N 49°54' W 003°19'1312.8
2018-Aug-01 14:00N 49°59' W 003°00'612.2
2018-Aug-01 13:30N 50°01' W 002°51'611.7
2018-Aug-01 13:00N 50°02' W 002°43'611.1
2018-Aug-01 12:30N 50°04' W 002°34'510.5
2018-Aug-01 12:00N 50°05' W 002°26'5 9.8
2018-Aug-01 11:30N 50°06' W 002°19'5 9.2
2018-Aug-01 11:00N 50°07' W 002°12'4 8.8
2018-Aug-01 10:30N 50°08' W 002°05'4 8.6
2018-Aug-01 10:00N 50°09' W 001°59'6 8.9
2018-Aug-01 09:22N 50°11' W 001°50'3 9.5
2018-Aug-01 09:00N 50°12' W 001°45'510.1
2018-Aug-01 08:30N 50°14' W 001°38'911.3
2018-Aug-01 07:44N 50°16' W 001°25'312.3
2018-Aug-01 07:29N 50°17' W 001°20'813.1
2018-Aug-01 06:55N 50°19' W 001°09'614.2
2018-Aug-01 06:30N 50°21' W 000°60'714.6
2018-Aug-01 06:00N 50°22' W 000°49'714.6
2018-Aug-01 05:30N 50°24' W 000°38'714.5
2018-Aug-01 05:00N 50°26' W 000°27'714.2
2018-Aug-01 04:30N 50°28' W 000°16'813.7
2018-Aug-01 03:54N 50°30' W 000°04'613.4
2018-Aug-01 03:29N 50°32' E 000°05'613.0
2018-Aug-01 02:59N 50°34' E 000°15'612.5
2018-Aug-01 02:29N 50°35' E 000°24'612.0
2018-Aug-01 02:00N 50°37' E 000°33'611.3
2018-Aug-01 01:30N 50°40' E 000°40'611.2
2018-Aug-01 01:00N 50°43' E 000°47'2911.7
2018-Jul-31 22:30N 51°02' E 001°23'714.5
2018-Jul-31 22:00N 51°06' E 001°32'714.7
2018-Jul-31 21:30N 51°11' E 001°41'713.8
2018-Jul-31 21:00N 51°17' E 001°47'713.2
2018-Jul-31 20:30N 51°23' E 001°52'612.5
2018-Jul-31 20:00N 51°28' E 001°57'612.2
2018-Jul-31 19:30N 51°33' E 002°04'611.9
2018-Jul-31 19:00N 51°37' E 002°10'611.8
2018-Jul-31 18:30N 51°42' E 002°17'611.1
2018-Jul-31 18:00N 51°46' E 002°23'510.8
2018-Jul-31 17:30N 51°50' E 002°28'510.6
2018-Jul-31 17:00N 51°54' E 002°34'510.4
2018-Jul-31 16:30N 51°58' E 002°40'2210.7
2018-Jul-31 14:28N 52°14' E 003°04'511.7
2018-Jul-31 14:00N 52°18' E 003°10'712.3
2018-Jul-31 13:26N 52°23' E 003°17'512.6
2018-Jul-31 13:00N 52°27' E 003°24'611.9
2018-Jul-31 12:28N 52°30' E 003°33'612.6
2018-Jul-31 12:00N 52°30' E 003°42'713.0
2018-Jul-31 11:30N 52°30' E 003°53'613.1
2018-Jul-31 11:00N 52°30' E 004°04'612.4
2018-Jul-31 10:30N 52°30' E 004°14'611.5
2018-Jul-31 10:00N 52°29' E 004°23'510.0
2018-Jul-31 09:30N 52°28' E 004°31'3 6.3
2018-Jul-31 09:00N 52°28' E 004°37'1 1.3
2018-Jul-31 08:30N 52°28' E 004°38'1 1.4
2018-Jul-31 08:00N 52°28' E 004°39'1 2.5
2018-Jul-31 07:30N 52°27' E 004°41'1 2.7
2018-Jul-31 07:00N 52°26' E 004°42'2 3.9
2018-Jul-31 06:30N 52°25' E 004°45'0 0.8
2018-Jul-31 05:55N 52°25' E 004°45'0 0.0
2018-Jul-31 05:25N 52°25' E 004°45'0 0.0
2018-Jul-31 04:25N 52°25' E 004°45'0 0.0
2018-Jul-31 03:55N 52°25' E 004°45'0 0.0
2018-Jul-31 03:19N 52°25' E 004°45'0 0.0
2018-Jul-31 02:55N 52°25' E 004°45'0 0.0
2018-Jul-31 02:25N 52°25' E 004°45'0 0.0
2018-Jul-31 01:55N 52°25' E 004°45'0 0.0
2018-Jul-31 01:25N 52°25' E 004°45'0 0.0
2018-Jul-31 00:55N 52°25' E 004°45'0 0.0
2018-Jul-31 00:25N 52°25' E 004°45'0 0.0
2018-Jul-30 23:55N 52°25' E 004°45'0 0.0
2018-Jul-30 23:25N 52°25' E 004°45'0 0.0
2018-Jul-30 22:55N 52°25' E 004°45'0 0.0
2018-Jul-30 22:25N 52°25' E 004°45'0 0.0
2018-Jul-30 21:55N 52°25' E 004°45'0 0.0
2018-Jul-30 21:25N 52°25' E 004°45'0 0.0
2018-Jul-30 20:55N 52°25' E 004°45'0 0.0
2018-Jul-30 20:25N 52°25' E 004°45'0 0.0
2018-Jul-30 19:55N 52°25' E 004°45'0 0.0
2018-Jul-30 19:25N 52°25' E 004°45'0 0.0
2018-Jul-30 18:55N 52°25' E 004°45'0 0.0
2018-Jul-30 18:25N 52°25' E 004°45'0 0.0
2018-Jul-30 17:55N 52°25' E 004°45'0 0.0
2018-Jul-30 17:25N 52°25' E 004°45'0 0.0
2018-Jul-30 16:55N 52°25' E 004°45'0 0.0
2018-Jul-30 16:25N 52°25' E 004°45'0 0.0
2018-Jul-30 15:55N 52°25' E 004°45'0 0.0
2018-Jul-30 15:25N 52°25' E 004°45'0 0.0
2018-Jul-30 14:43N 52°25' E 004°45'0 0.0
2018-Jul-30 14:25N 52°25' E 004°45'0 0.0
2018-Jul-30 13:55N 52°25' E 004°45'0 0.0
2018-Jul-30 13:19N 52°25' E 004°45'0 0.0
2018-Jul-30 12:55N 52°25' E 004°45'0 0.0
2018-Jul-30 12:25N 52°25' E 004°45'0 0.0
2018-Jul-30 11:55N 52°25' E 004°45'0 0.0
2018-Jul-30 11:19N 52°25' E 004°45'0 0.0
2018-Jul-30 10:55N 52°25' E 004°45'0 0.0
2018-Jul-30 10:25N 52°25' E 004°45'0 0.0
2018-Jul-30 09:55N 52°25' E 004°45'0 0.0
2018-Jul-30 09:25N 52°25' E 004°45'0 0.0
2018-Jul-30 08:49N 52°25' E 004°45'0 0.0
2018-Jul-30 08:13N 52°25' E 004°45'0 0.0
2018-Jul-30 07:55N 52°25' E 004°45'0 0.0
2018-Jul-30 07:25N 52°25' E 004°45'0 0.0
2018-Jul-30 06:55N 52°25' E 004°45'0 0.0
2018-Jul-30 06:25N 52°25' E 004°45'0 0.0
2018-Jul-30 05:55N 52°25' E 004°45'0 0.0
2018-Jul-30 05:25N 52°25' E 004°45'0 0.0
2018-Jul-30 04:49N 52°25' E 004°45'0 0.0
2018-Jul-30 04:25N 52°25' E 004°45'0 0.0
2018-Jul-30 03:55N 52°25' E 004°45'0 0.0
2018-Jul-30 03:25N 52°25' E 004°45'0 0.0
2018-Jul-30 02:55N 52°25' E 004°45'0 0.0
2018-Jul-30 02:25N 52°25' E 004°45'0 0.0
2018-Jul-30 01:55N 52°25' E 004°45'0 0.0
2018-Jul-30 01:25N 52°25' E 004°45'0 0.0
2018-Jul-30 00:55N 52°25' E 004°45'0 0.0
2018-Jul-30 00:19N 52°25' E 004°45'0 0.0
2018-Jul-29 23:55N 52°25' E 004°45'0 0.0
2018-Jul-29 23:25N 52°25' E 004°45'0 0.0
2018-Jul-29 22:55N 52°25' E 004°45'0 0.0
2018-Jul-29 22:25N 52°25' E 004°45'0 0.0
2018-Jul-29 21:55N 52°25' E 004°45'0 0.0
2018-Jul-29 21:25N 52°25' E 004°45'0 0.0
2018-Jul-29 20:55N 52°25' E 004°45'0 0.0
2018-Jul-29 20:25N 52°25' E 004°45'0 0.0
2018-Jul-29 19:55N 52°25' E 004°45'0 0.0
2018-Jul-29 19:25N 52°25' E 004°45'0 0.0
2018-Jul-29 18:55N 52°25' E 004°45'0 0.0
2018-Jul-29 18:25N 52°25' E 004°45'0 0.0
2018-Jul-29 17:55N 52°25' E 004°45'0 0.0
2018-Jul-29 17:25N 52°25' E 004°45'0 0.0
2018-Jul-29 16:49N 52°25' E 004°45'0 0.0
2018-Jul-29 16:25N 52°25' E 004°45'0 0.0
2018-Jul-29 15:55N 52°25' E 004°45'0 0.0
2018-Jul-29 15:25N 52°25' E 004°45'0 0.0
2018-Jul-29 14:55N 52°25' E 004°45'0 0.0
2018-Jul-29 13:55N 52°25' E 004°45'0 0.0
2018-Jul-29 13:19N 52°25' E 004°45'0 0.0
2018-Jul-29 12:55N 52°25' E 004°45'0 0.0
2018-Jul-29 12:25N 52°25' E 004°45'0 0.0
2018-Jul-29 11:49N 52°25' E 004°45'0 0.0
2018-Jul-29 11:25N 52°25' E 004°45'0 0.0
2018-Jul-29 10:55N 52°25' E 004°45'0 0.0
2018-Jul-29 10:25N 52°25' E 004°45'0 0.0
2018-Jul-29 09:55N 52°25' E 004°45'0 0.0
2018-Jul-29 09:25N 52°25' E 004°45'0 0.0
2018-Jul-29 08:55N 52°25' E 004°45'0 0.0
2018-Jul-29 08:25N 52°25' E 004°45'0 0.0
2018-Jul-29 07:49N 52°25' E 004°45'0 0.0
2018-Jul-29 07:25N 52°25' E 004°45'0 0.0
2018-Jul-29 06:55N 52°25' E 004°45'0 0.0
2018-Jul-29 06:19N 52°25' E 004°45'0 0.0
2018-Jul-29 05:55N 52°25' E 004°45'0 0.0
2018-Jul-29 05:25N 52°25' E 004°45'0 0.0
2018-Jul-29 04:55N 52°25' E 004°45'0 0.0
2018-Jul-29 04:25N 52°25' E 004°45'0 0.0
2018-Jul-29 03:55N 52°25' E 004°45'0 0.0
2018-Jul-29 03:25N 52°25' E 004°45'0 0.0
2018-Jul-29 02:55N 52°25' E 004°45'0 0.0
2018-Jul-29 02:25N 52°25' E 004°45'0 0.0
2018-Jul-29 01:55N 52°25' E 004°45'0 0.0
2018-Jul-29 01:25N 52°25' E 004°45'0 0.0
2018-Jul-29 00:55N 52°25' E 004°45'0 0.0
2018-Jul-29 00:25N 52°25' E 004°45'0 0.0
2018-Jul-28 23:55N 52°25' E 004°45'0 0.0
2018-Jul-28 23:25N 52°25' E 004°45'0 0.0
2018-Jul-28 22:55N 52°25' E 004°45'0 0.0
2018-Jul-28 22:25N 52°25' E 004°45'0 0.0
2018-Jul-28 21:55N 52°25' E 004°45'0 0.0
2018-Jul-28 21:19N 52°25' E 004°45'0 0.0
2018-Jul-28 20:55N 52°25' E 004°45'0 0.0
2018-Jul-28 20:25N 52°25' E 004°45'0 0.0
2018-Jul-28 19:55N 52°25' E 004°45'0 0.0
2018-Jul-28 19:25N 52°25' E 004°45'0 0.0
2018-Jul-28 18:55N 52°25' E 004°45'0 0.0
2018-Jul-28 18:25N 52°25' E 004°45'0 0.0
2018-Jul-28 17:55N 52°25' E 004°45'0 0.0
2018-Jul-28 17:19N 52°25' E 004°45'0 0.0
2018-Jul-28 16:55N 52°25' E 004°45'0 0.0
2018-Jul-28 16:25N 52°25' E 004°45'0 0.0
2018-Jul-28 15:55N 52°25' E 004°45'0 0.0
2018-Jul-28 15:25N 52°25' E 004°45'0 0.0
2018-Jul-28 14:55N 52°25' E 004°45'0 0.0
2018-Jul-28 14:25N 52°25' E 004°45'0 0.0
2018-Jul-28 13:49N 52°25' E 004°45'0 0.0
2018-Jul-28 13:25N 52°25' E 004°45'0 0.0
2018-Jul-28 12:55N 52°25' E 004°45'0 0.0
2018-Jul-28 12:25N 52°25' E 004°45'0 0.0
2018-Jul-28 11:55N 52°25' E 004°45'0 0.0
2018-Jul-28 11:25N 52°25' E 004°45'0 0.0
2018-Jul-28 10:55N 52°25' E 004°45'0 0.0
2018-Jul-28 10:25N 52°25' E 004°45'0 0.0
2018-Jul-28 09:49N 52°25' E 004°45'0 0.0
2018-Jul-28 09:25N 52°25' E 004°45'0 0.0
2018-Jul-28 08:55N 52°25' E 004°45'0 0.0
2018-Jul-28 08:25N 52°25' E 004°45'0 0.0
2018-Jul-28 07:49N 52°25' E 004°45'0 0.0
2018-Jul-28 07:25N 52°25' E 004°45'0 0.0
2018-Jul-28 06:55N 52°25' E 004°45'0 0.9
2018-Jul-28 06:30N 52°25' E 004°45'1 2.5
2018-Jul-28 06:00N 52°26' E 004°43'3 6.7
2018-Jul-28 05:30N 52°28' E 004°39'1 2.8
2018-Jul-28 05:00N 52°28' E 004°36'1 1.4
2018-Jul-28 04:30N 52°28' E 004°35'4 8.2
2018-Jul-28 04:00N 52°28' E 004°29'4 7.7
2018-Jul-28 03:30N 52°28' E 004°22'4 7.3
2018-Jul-28 03:00N 52°29' E 004°16'2 3.6
2018-Jul-28 02:30N 52°29' E 004°13'2 3.5
2018-Jul-28 02:00N 52°29' E 004°11'2 3.7
2018-Jul-28 01:30N 52°29' E 004°08'2 3.6
2018-Jul-28 01:00N 52°28' E 004°05'4 8.5
2018-Jul-28 00:30N 52°27' E 003°58'1 2.5
2018-Jul-27 23:59N 52°26' E 003°58'0 0.0
2018-Jul-27 23:30N 52°26' E 003°58'0 0.1
2018-Jul-27 23:00N 52°26' E 003°58'0 0.0
2018-Jul-27 22:30N 52°26' E 003°58'0 0.0
2018-Jul-27 22:00N 52°26' E 003°58'0 0.0
2018-Jul-27 21:30N 52°26' E 003°58'0 0.4
2018-Jul-27 21:00N 52°26' E 003°57'0 0.0
2018-Jul-27 20:30N 52°26' E 003°57'  
Track history (hours):
 
Tides and Currents Weather Stations Pressure Air Temp Water Temp Dewpoint Dewpoint Depression Visibility Wind Speed Wind Dir Waves Ship Positions

Maersk Erin

Last reported at 2018-Aug-06 20:24 UTC. Time now 2018-Aug-14 19:27 UTC.
Position N 27°56' W 018°50'.

Length 186 m; draft 8.9 m.

Type: Ship. MMSI: 219410000.

Date/timePositionNaut miles runAvg speedWind from/ knotsBaromVisibWave heightAir tempDewpointWater temp
2018-Aug-06 20:24N 27°56' W 018°50'1112.5
2018-Aug-06 19:30N 28°07' W 018°48'612.7
2018-Aug-06 19:01N 28°14' W 018°47'612.5
2018-Aug-06 18:30N 28°20' W 018°45'612.1
2018-Aug-06 18:00N 28°26' W 018°44'611.9
2018-Aug-06 17:31N 28°31' W 018°42'611.5
2018-Aug-06 17:00N 28°37' W 018°41'611.3
2018-Aug-06 16:30N 28°43' W 018°39'711.5
2018-Aug-06 15:52N 28°50' W 018°37'511.9
2018-Aug-06 15:29N 28°54' W 018°36'612.1
2018-Aug-06 15:01N 28°60' W 018°35'612.5
2018-Aug-06 14:30N 29°06' W 018°33'612.6
2018-Aug-06 14:01N 29°12' W 018°32'1512.7
2018-Aug-06 12:49N 29°27' W 018°28'412.7
2018-Aug-06 12:30N 29°31' W 018°27'712.7
2018-Aug-06 11:56N 29°38' W 018°25'612.6
2018-Aug-06 11:29N 29°43' W 018°24'612.7
2018-Aug-06 11:00N 29°49' W 018°23'2512.5
2018-Aug-06 09:00N 30°14' W 018°16'612.8
2018-Aug-06 08:30N 30°20' W 018°15'612.6
2018-Aug-06 08:00N 30°26' W 018°13'612.5
2018-Aug-06 07:30N 30°32' W 018°12'712.4
2018-Aug-06 06:59N 30°39' W 018°10'612.5
2018-Aug-06 06:30N 30°44' W 018°08'612.5
2018-Aug-06 06:00N 30°51' W 018°07'612.2
2018-Aug-06 05:30N 30°57' W 018°06'612.3
2018-Aug-06 05:01N 31°02' W 018°04'812.3
2018-Aug-06 04:20N 31°11' W 018°02'3212.3
2018-Aug-06 01:43N 31°42' W 017°54'412.6
2018-Aug-06 01:22N 31°46' W 017°53'1412.6
2018-Aug-06 00:14N 32°00' W 017°50'512.6
2018-Aug-05 23:51N 32°05' W 017°48'412.6
2018-Aug-05 23:30N 32°09' W 017°47'712.7
2018-Aug-05 22:58N 32°16' W 017°46'713.0
2018-Aug-05 22:28N 32°22' W 017°44'613.1
2018-Aug-05 22:00N 32°28' W 017°43'612.9
2018-Aug-05 21:31N 32°35' W 017°41'612.7
2018-Aug-05 21:00N 32°41' W 017°39'612.9
2018-Aug-05 20:30N 32°47' W 017°38'712.9
2018-Aug-05 19:59N 32°54' W 017°36'612.5
2018-Aug-05 19:30N 32°59' W 017°33'612.4
2018-Aug-05 19:00N 33°05' W 017°30'612.5
2018-Aug-05 18:30N 33°10' W 017°27'612.4
2018-Aug-05 18:00N 33°16' W 017°23'812.5
2018-Aug-05 17:23N 33°23' W 017°19'512.4
2018-Aug-05 16:59N 33°27' W 017°17'612.3
2018-Aug-05 16:31N 33°33' W 017°14'712.6
2018-Aug-05 15:59N 33°39' W 017°11'911.9
2018-Aug-05 15:14N 33°47' W 017°06'0 1.9
2018-Aug-05 15:00N 33°47' W 017°06'612.6
2018-Aug-05 14:30N 33°53' W 017°03'1412.7
2018-Aug-05 13:24N 34°05' W 016°56'512.5
2018-Aug-05 13:00N 34°10' W 016°53'612.6
2018-Aug-05 12:30N 34°16' W 016°50'1012.8
2018-Aug-05 11:43N 34°25' W 016°45'6312.3
2018-Aug-05 06:36N 35°22' W 016°12'612.1
2018-Aug-05 06:06N 35°27' W 016°09'9012.3
2018-Aug-04 22:46N 36°48' W 015°20'312.2
2018-Aug-04 22:30N 36°51' W 015°18'712.4
2018-Aug-04 21:54N 36°58' W 015°14'812.8
2018-Aug-04 21:19N 37°05' W 015°10'1812.6
2018-Aug-04 19:52N 37°21' W 015°00'812.9
2018-Aug-04 19:16N 37°28' W 014°56'8012.4
2018-Aug-04 12:49N 38°40' W 014°11'512.4
2018-Aug-04 12:26N 38°44' W 014°08'512.3
2018-Aug-04 12:01N 38°49' W 014°05'612.3
2018-Aug-04 11:31N 38°54' W 014°01'612.2
2018-Aug-04 11:01N 38°60' W 013°58'612.6
2018-Aug-04 10:30N 39°05' W 013°54'812.6
2018-Aug-04 09:53N 39°12' W 013°50'512.5
2018-Aug-04 09:30N 39°17' W 013°47'912.6
2018-Aug-04 08:47N 39°25' W 013°41'412.6
2018-Aug-04 08:30N 39°28' W 013°39'612.4
2018-Aug-04 08:01N 39°33' W 013°36'612.4
2018-Aug-04 07:30N 39°39' W 013°32'612.8
2018-Aug-04 07:00N 39°44' W 013°28'612.4
2018-Aug-04 06:30N 39°50' W 013°25'612.3
2018-Aug-04 06:01N 39°56' W 013°21'712.0
2018-Aug-04 05:26N 40°02' W 013°17'612.2
2018-Aug-04 04:59N 40°07' W 013°14'612.4
2018-Aug-04 04:31N 40°12' W 013°10'611.1
2018-Aug-04 04:00N 40°17' W 013°07'611.0
2018-Aug-04 03:30N 40°22' W 013°04'611.3
2018-Aug-04 03:00N 40°27' W 013°00'4211.0
2018-Aug-03 23:14N 41°04' W 012°35'611.3
2018-Aug-03 22:43N 41°09' W 012°31'211.9
2018-Aug-03 22:30N 41°11' W 012°30'612.2
2018-Aug-03 22:00N 41°17' W 012°26'612.2
2018-Aug-03 21:30N 41°22' W 012°22'32112.6
2018-Aug-02 19:59N 46°02' W 008°46'4912.1
2018-Aug-02 15:58N 46°44' W 008°11'2012.2
2018-Aug-02 14:19N 47°02' W 007°56'1612.1
2018-Aug-02 12:59N 47°15' W 007°43'2412.1
2018-Aug-02 11:01N 47°36' W 007°25'012.5
2018-Aug-02 10:59N 47°36' W 007°25'712.4
2018-Aug-02 10:26N 47°42' W 007°20'1112.8
2018-Aug-02 09:37N 47°51' W 007°11'313.3
2018-Aug-02 09:24N 47°53' W 007°08'512.8
2018-Aug-02 09:00N 47°58' W 007°05'712.4
2018-Aug-02 08:24N 48°04' W 006°59'512.2
2018-Aug-02 08:00N 48°08' W 006°56'711.9
2018-Aug-02 07:23N 48°14' W 006°49'411.1
2018-Aug-02 07:00N 48°18' W 006°46'710.5
2018-Aug-02 06:22N 48°23' W 006°40'410.0
2018-Aug-02 06:01N 48°26' W 006°38'5 9.9
2018-Aug-02 05:30N 48°31' W 006°34'510.1
2018-Aug-02 05:00N 48°35' W 006°30'510.1
2018-Aug-02 04:30N 48°39' W 006°26'510.1
2018-Aug-02 03:59N 48°44' W 006°22'510.4
2018-Aug-02 03:30N 48°48' W 006°18'510.5
2018-Aug-02 03:01N 48°53' W 006°14'510.7
2018-Aug-02 02:30N 48°57' W 006°10'510.6
2018-Aug-02 02:00N 49°02' W 006°05'510.8
2018-Aug-02 01:31N 49°05' W 005°59'611.1
2018-Aug-02 01:00N 49°08' W 005°52'611.2
2018-Aug-02 00:30N 49°12' W 005°45'610.9
2018-Aug-01 23:59N 49°14' W 005°38'711.1
2018-Aug-01 23:21N 49°18' W 005°29'411.0
2018-Aug-01 23:01N 49°20' W 005°24'910.9
2018-Aug-01 22:13N 49°25' W 005°13'210.3
2018-Aug-01 22:00N 49°26' W 005°10'610.5
2018-Aug-01 21:26N 49°30' W 005°03'2010.2
2018-Aug-01 19:31N 49°37' W 004°35'010.0
2018-Aug-01 19:30N 49°37' W 004°35'3110.8
2018-Aug-01 16:38N 49°48' W 003°50'1612.8
2018-Aug-01 15:24N 49°53' W 003°26'512.9
2018-Aug-01 15:00N 49°54' W 003°19'1312.8
2018-Aug-01 14:00N 49°59' W 003°00'612.2
2018-Aug-01 13:30N 50°01' W 002°51'611.7
2018-Aug-01 13:00N 50°02' W 002°43'611.1
2018-Aug-01 12:30N 50°04' W 002°34'510.5
2018-Aug-01 12:00N 50°05' W 002°26'5 9.8
2018-Aug-01 11:30N 50°06' W 002°19'5 9.2
2018-Aug-01 11:00N 50°07' W 002°12'4 8.8
2018-Aug-01 10:30N 50°08' W 002°05'4 8.6
2018-Aug-01 10:00N 50°09' W 001°59'6 8.9
2018-Aug-01 09:22N 50°11' W 001°50'3 9.5
2018-Aug-01 09:00N 50°12' W 001°45'510.1
2018-Aug-01 08:30N 50°14' W 001°38'911.3
2018-Aug-01 07:44N 50°16' W 001°25'312.3
2018-Aug-01 07:29N 50°17' W 001°20'813.1
2018-Aug-01 06:55N 50°19' W 001°09'614.2
2018-Aug-01 06:30N 50°21' W 000°60'714.6
2018-Aug-01 06:00N 50°22' W 000°49'714.6
2018-Aug-01 05:30N 50°24' W 000°38'714.5
2018-Aug-01 05:00N 50°26' W 000°27'714.2
2018-Aug-01 04:30N 50°28' W 000°16'813.7
2018-Aug-01 03:54N 50°30' W 000°04'613.4
2018-Aug-01 03:29N 50°32' E 000°05'613.0
2018-Aug-01 02:59N 50°34' E 000°15'612.5
2018-Aug-01 02:29N 50°35' E 000°24'612.0
2018-Aug-01 02:00N 50°37' E 000°33'611.3
2018-Aug-01 01:30N 50°40' E 000°40'611.2
2018-Aug-01 01:00N 50°43' E 000°47'2911.7
2018-Jul-31 22:30N 51°02' E 001°23'714.5
2018-Jul-31 22:00N 51°06' E 001°32'714.7
2018-Jul-31 21:30N 51°11' E 001°41'713.8
2018-Jul-31 21:00N 51°17' E 001°47'713.2
2018-Jul-31 20:30N 51°23' E 001°52'612.5
2018-Jul-31 20:00N 51°28' E 001°57'612.2
2018-Jul-31 19:30N 51°33' E 002°04'611.9
2018-Jul-31 19:00N 51°37' E 002°10'611.8
2018-Jul-31 18:30N 51°42' E 002°17'611.1
2018-Jul-31 18:00N 51°46' E 002°23'510.8
2018-Jul-31 17:30N 51°50' E 002°28'510.6
2018-Jul-31 17:00N 51°54' E 002°34'510.4
2018-Jul-31 16:30N 51°58' E 002°40'2210.7
2018-Jul-31 14:28N 52°14' E 003°04'511.7
2018-Jul-31 14:00N 52°18' E 003°10'712.3
2018-Jul-31 13:26N 52°23' E 003°17'512.6
2018-Jul-31 13:00N 52°27' E 003°24'611.9
2018-Jul-31 12:28N 52°30' E 003°33'612.6
2018-Jul-31 12:00N 52°30' E 003°42'713.0
2018-Jul-31 11:30N 52°30' E 003°53'613.1
2018-Jul-31 11:00N 52°30' E 004°04'612.4
2018-Jul-31 10:30N 52°30' E 004°14'611.5
2018-Jul-31 10:00N 52°29' E 004°23'510.0
2018-Jul-31 09:30N 52°28' E 004°31'3 6.3
2018-Jul-31 09:00N 52°28' E 004°37'1 1.3
2018-Jul-31 08:30N 52°28' E 004°38'1 1.4
2018-Jul-31 08:00N 52°28' E 004°39'1 2.5
2018-Jul-31 07:30N 52°27' E 004°41'1 2.7
2018-Jul-31 07:00N 52°26' E 004°42'2 3.9
2018-Jul-31 06:30N 52°25' E 004°45'0 0.8
2018-Jul-31 05:55N 52°25' E 004°45'0 0.0
2018-Jul-31 05:25N 52°25' E 004°45'0 0.0
2018-Jul-31 04:25N 52°25' E 004°45'0 0.0
2018-Jul-31 03:55N 52°25' E 004°45'0 0.0
2018-Jul-31 03:19N 52°25' E 004°45'0 0.0
2018-Jul-31 02:55N 52°25' E 004°45'0 0.0
2018-Jul-31 02:25N 52°25' E 004°45'0 0.0
2018-Jul-31 01:55N 52°25' E 004°45'0 0.0
2018-Jul-31 01:25N 52°25' E 004°45'0 0.0
2018-Jul-31 00:55N 52°25' E 004°45'0 0.0
2018-Jul-31 00:25N 52°25' E 004°45'0 0.0
2018-Jul-30 23:55N 52°25' E 004°45'0 0.0
2018-Jul-30 23:25N 52°25' E 004°45'0 0.0
2018-Jul-30 22:55N 52°25' E 004°45'0 0.0
2018-Jul-30 22:25N 52°25' E 004°45'0 0.0
2018-Jul-30 21:55N 52°25' E 004°45'0 0.0
2018-Jul-30 21:25N 52°25' E 004°45'0 0.0
2018-Jul-30 20:55N 52°25' E 004°45'0 0.0
2018-Jul-30 20:25N 52°25' E 004°45'0 0.0
2018-Jul-30 19:55N 52°25' E 004°45'0 0.0
2018-Jul-30 19:25N 52°25' E 004°45'0 0.0
2018-Jul-30 18:55N 52°25' E 004°45'0 0.0
2018-Jul-30 18:25N 52°25' E 004°45'0 0.0
2018-Jul-30 17:55N 52°25' E 004°45'0 0.0
2018-Jul-30 17:25N 52°25' E 004°45'0 0.0
2018-Jul-30 16:55N 52°25' E 004°45'0 0.0
2018-Jul-30 16:25N 52°25' E 004°45'0 0.0
2018-Jul-30 15:55N 52°25' E 004°45'0 0.0
2018-Jul-30 15:25N 52°25' E 004°45'0 0.0
2018-Jul-30 14:43N 52°25' E 004°45'0 0.0
2018-Jul-30 14:25N 52°25' E 004°45'0 0.0
2018-Jul-30 13:55N 52°25' E 004°45'0 0.0
2018-Jul-30 13:19N 52°25' E 004°45'0 0.0
2018-Jul-30 12:55N 52°25' E 004°45'0 0.0
2018-Jul-30 12:25N 52°25' E 004°45'0 0.0
2018-Jul-30 11:55N 52°25' E 004°45'0 0.0
2018-Jul-30 11:19N 52°25' E 004°45'0 0.0
2018-Jul-30 10:55N 52°25' E 004°45'0 0.0
2018-Jul-30 10:25N 52°25' E 004°45'0 0.0
2018-Jul-30 09:55N 52°25' E 004°45'0 0.0
2018-Jul-30 09:25N 52°25' E 004°45'0 0.0
2018-Jul-30 08:49N 52°25' E 004°45'0 0.0
2018-Jul-30 08:13N 52°25' E 004°45'0 0.0
2018-Jul-30 07:55N 52°25' E 004°45'0 0.0
2018-Jul-30 07:25N 52°25' E 004°45'0 0.0
2018-Jul-30 06:55N 52°25' E 004°45'0 0.0
2018-Jul-30 06:25N 52°25' E 004°45'0 0.0
2018-Jul-30 05:55N 52°25' E 004°45'0 0.0
2018-Jul-30 05:25N 52°25' E 004°45'0 0.0
2018-Jul-30 04:49N 52°25' E 004°45'0 0.0
2018-Jul-30 04:25N 52°25' E 004°45'0 0.0
2018-Jul-30 03:55N 52°25' E 004°45'0 0.0
2018-Jul-30 03:25N 52°25' E 004°45'0 0.0
2018-Jul-30 02:55N 52°25' E 004°45'0 0.0
2018-Jul-30 02:25N 52°25' E 004°45'0 0.0
2018-Jul-30 01:55N 52°25' E 004°45'0 0.0
2018-Jul-30 01:25N 52°25' E 004°45'0 0.0
2018-Jul-30 00:55N 52°25' E 004°45'0 0.0
2018-Jul-30 00:19N 52°25' E 004°45'0 0.0
2018-Jul-29 23:55N 52°25' E 004°45'0 0.0
2018-Jul-29 23:25N 52°25' E 004°45'0 0.0
2018-Jul-29 22:55N 52°25' E 004°45'0 0.0
2018-Jul-29 22:25N 52°25' E 004°45'0 0.0
2018-Jul-29 21:55N 52°25' E 004°45'0 0.0
2018-Jul-29 21:25N 52°25' E 004°45'0 0.0
2018-Jul-29 20:55N 52°25' E 004°45'0 0.0
2018-Jul-29 20:25N 52°25' E 004°45'0 0.0
2018-Jul-29 19:55N 52°25' E 004°45'0 0.0
2018-Jul-29 19:25N 52°25' E 004°45'0 0.0
2018-Jul-29 18:55N 52°25' E 004°45'0 0.0
2018-Jul-29 18:25N 52°25' E 004°45'0 0.0
2018-Jul-29 17:55N 52°25' E 004°45'0 0.0
2018-Jul-29 17:25N 52°25' E 004°45'0 0.0
2018-Jul-29 16:49N 52°25' E 004°45'0 0.0
2018-Jul-29 16:25N 52°25' E 004°45'0 0.0
2018-Jul-29 15:55N 52°25' E 004°45'0 0.0
2018-Jul-29 15:25N 52°25' E 004°45'0 0.0
2018-Jul-29 14:55N 52°25' E 004°45'0 0.0
2018-Jul-29 13:55N 52°25' E 004°45'0 0.0
2018-Jul-29 13:19N 52°25' E 004°45'0 0.0
2018-Jul-29 12:55N 52°25' E 004°45'0 0.0
2018-Jul-29 12:25N 52°25' E 004°45'0 0.0
2018-Jul-29 11:49N 52°25' E 004°45'0 0.0
2018-Jul-29 11:25N 52°25' E 004°45'0 0.0
2018-Jul-29 10:55N 52°25' E 004°45'0 0.0
2018-Jul-29 10:25N 52°25' E 004°45'0 0.0
2018-Jul-29 09:55N 52°25' E 004°45'0 0.0
2018-Jul-29 09:25N 52°25' E 004°45'0 0.0
2018-Jul-29 08:55N 52°25' E 004°45'0 0.0
2018-Jul-29 08:25N 52°25' E 004°45'0 0.0
2018-Jul-29 07:49N 52°25' E 004°45'0 0.0
2018-Jul-29 07:25N 52°25' E 004°45'0 0.0
2018-Jul-29 06:55N 52°25' E 004°45'0 0.0
2018-Jul-29 06:19N 52°25' E 004°45'0 0.0
2018-Jul-29 05:55N 52°25' E 004°45'0 0.0
2018-Jul-29 05:25N 52°25' E 004°45'0 0.0
2018-Jul-29 04:55N 52°25' E 004°45'0 0.0
2018-Jul-29 04:25N 52°25' E 004°45'0 0.0
2018-Jul-29 03:55N 52°25' E 004°45'0 0.0
2018-Jul-29 03:25N 52°25' E 004°45'0 0.0
2018-Jul-29 02:55N 52°25' E 004°45'0 0.0
2018-Jul-29 02:25N 52°25' E 004°45'0 0.0
2018-Jul-29 01:55N 52°25' E 004°45'0 0.0
2018-Jul-29 01:25N 52°25' E 004°45'0 0.0
2018-Jul-29 00:55N 52°25' E 004°45'0 0.0
2018-Jul-29 00:25N 52°25' E 004°45'0 0.0
2018-Jul-28 23:55N 52°25' E 004°45'0 0.0
2018-Jul-28 23:25N 52°25' E 004°45'0 0.0
2018-Jul-28 22:55N 52°25' E 004°45'0 0.0
2018-Jul-28 22:25N 52°25' E 004°45'0 0.0
2018-Jul-28 21:55N 52°25' E 004°45'0 0.0
2018-Jul-28 21:19N 52°25' E 004°45'0 0.0
2018-Jul-28 20:55N 52°25' E 004°45'0 0.0
2018-Jul-28 20:25N 52°25' E 004°45'0 0.0
2018-Jul-28 19:55N 52°25' E 004°45'0 0.0
2018-Jul-28 19:25N 52°25' E 004°45'0 0.0
2018-Jul-28 18:55N 52°25' E 004°45'0 0.0
2018-Jul-28 18:25N 52°25' E 004°45'0 0.0
2018-Jul-28 17:55N 52°25' E 004°45'0 0.0
2018-Jul-28 17:19N 52°25' E 004°45'0 0.0
2018-Jul-28 16:55N 52°25' E 004°45'0 0.0
2018-Jul-28 16:25N 52°25' E 004°45'0 0.0
2018-Jul-28 15:55N 52°25' E 004°45'0 0.0
2018-Jul-28 15:25N 52°25' E 004°45'0 0.0
2018-Jul-28 14:55N 52°25' E 004°45'0 0.0
2018-Jul-28 14:25N 52°25' E 004°45'0 0.0
2018-Jul-28 13:49N 52°25' E 004°45'0 0.0
2018-Jul-28 13:25N 52°25' E 004°45'0 0.0
2018-Jul-28 12:55N 52°25' E 004°45'0 0.0
2018-Jul-28 12:25N 52°25' E 004°45'0 0.0
2018-Jul-28 11:55N 52°25' E 004°45'0 0.0
2018-Jul-28 11:25N 52°25' E 004°45'0 0.0
2018-Jul-28 10:55N 52°25' E 004°45'0 0.0
2018-Jul-28 10:25N 52°25' E 004°45'0 0.0
2018-Jul-28 09:49N 52°25' E 004°45'0 0.0
2018-Jul-28 09:25N 52°25' E 004°45'0 0.0
2018-Jul-28 08:55N 52°25' E 004°45'0 0.0
2018-Jul-28 08:25N 52°25' E 004°45'0 0.0
2018-Jul-28 07:49N 52°25' E 004°45'0 0.0
2018-Jul-28 07:25N 52°25' E 004°45'0 0.0
2018-Jul-28 06:55N 52°25' E 004°45'0 0.9
2018-Jul-28 06:30N 52°25' E 004°45'1 2.5
2018-Jul-28 06:00N 52°26' E 004°43'3 6.7
2018-Jul-28 05:30N 52°28' E 004°39'1 2.8
2018-Jul-28 05:00N 52°28' E 004°36'1 1.4
2018-Jul-28 04:30N 52°28' E 004°35'4 8.2
2018-Jul-28 04:00N 52°28' E 004°29'4 7.7
2018-Jul-28 03:30N 52°28' E 004°22'4 7.3
2018-Jul-28 03:00N 52°29' E 004°16'2 3.6
2018-Jul-28 02:30N 52°29' E 004°13'2 3.5
2018-Jul-28 02:00N 52°29' E 004°11'2 3.7
2018-Jul-28 01:30N 52°29' E 004°08'2 3.6
2018-Jul-28 01:00N 52°28' E 004°05'4 8.5
2018-Jul-28 00:30N 52°27' E 003°58'1 2.5
2018-Jul-27 23:59N 52°26' E 003°58'0 0.0
2018-Jul-27 23:30N 52°26' E 003°58'0 0.1
2018-Jul-27 23:00N 52°26' E 003°58'0 0.0
2018-Jul-27 22:30N 52°26' E 003°58'0 0.0
2018-Jul-27 22:00N 52°26' E 003°58'0 0.0
2018-Jul-27 21:30N 52°26' E 003°58'0 0.4
2018-Jul-27 21:00N 52°26' E 003°57'0 0.0
2018-Jul-27 20:30N 52°26' E 003°57'  

Dump ship's entire track history